sensor_id;sensor_type;location;lat;lon;timestamp;temperature;humidity
21759;DHT22;11041;50.854;20.580;2022-11-20T00:01:22;-4.50;99.90
21759;DHT22;11041;50.854;20.580;2022-11-20T00:03:52;-4.50;99.90
21759;DHT22;11041;50.854;20.580;2022-11-20T00:06:20;-4.50;99.90
21759;DHT22;11041;50.854;20.580;2022-11-20T00:08:48;-4.50;99.90
21759;DHT22;11041;50.854;20.580;2022-11-20T00:11:21;-4.50;99.90
21759;DHT22;11041;50.854;20.580;2022-11-20T00:13:52;-4.60;99.90
21759;DHT22;11041;50.854;20.580;2022-11-20T00:16:23;-4.60;99.90
21759;DHT22;11041;50.854;20.580;2022-11-20T00:18:51;-4.60;99.90
21759;DHT22;11041;50.854;20.580;2022-11-20T00:21:21;-4.70;99.90
21759;DHT22;11041;50.854;20.580;2022-11-20T00:23:49;-4.70;99.90
21759;DHT22;11041;50.854;20.580;2022-11-20T00:26:18;-4.70;99.90
21759;DHT22;11041;50.854;20.580;2022-11-20T00:28:54;-4.80;99.90
21759;DHT22;11041;50.854;20.580;2022-11-20T00:31:23;-4.80;99.90
21759;DHT22;11041;50.854;20.580;2022-11-20T00:33:50;-4.80;99.90
21759;DHT22;11041;50.854;20.580;2022-11-20T00:36:20;-4.90;99.90
21759;DHT22;11041;50.854;20.580;2022-11-20T00:38:53;-4.80;99.90
21759;DHT22;11041;50.854;20.580;2022-11-20T00:41:21;-4.90;99.90
21759;DHT22;11041;50.854;20.580;2022-11-20T00:43:48;-4.90;99.90
21759;DHT22;11041;50.854;20.580;2022-11-20T00:46:19;-4.80;99.90
21759;DHT22;11041;50.854;20.580;2022-11-20T00:48:47;-4.80;99.90
21759;DHT22;11041;50.854;20.580;2022-11-20T00:51:16;-4.80;99.90
21759;DHT22;11041;50.854;20.580;2022-11-20T00:53:45;-4.70;99.90
21759;DHT22;11041;50.854;20.580;2022-11-20T00:56:17;-4.80;99.90
21759;DHT22;11041;50.854;20.580;2022-11-20T00:58:46;-4.70;99.90
21759;DHT22;11041;50.854;20.580;2022-11-20T01:01:16;-4.70;99.90
21759;DHT22;11041;50.854;20.580;2022-11-20T01:03:47;-4.70;99.90
21759;DHT22;11041;50.854;20.580;2022-11-20T01:06:20;-4.70;99.90
21759;DHT22;11041;50.854;20.580;2022-11-20T01:08:50;-4.80;99.90
21759;DHT22;11041;50.854;20.580;2022-11-20T01:11:21;-4.70;99.90
21759;DHT22;11041;50.854;20.580;2022-11-20T01:13:53;-4.70;99.90
21759;DHT22;11041;50.854;20.580;2022-11-20T01:16:29;-4.80;99.90
21759;DHT22;11041;50.854;20.580;2022-11-20T01:19:03;-4.80;99.90
21759;DHT22;11041;50.854;20.580;2022-11-20T01:21:36;-4.90;99.90
21759;DHT22;11041;50.854;20.580;2022-11-20T01:24:06;-4.90;99.90
21759;DHT22;11041;50.854;20.580;2022-11-20T01:26:37;-5.00;99.90
21759;DHT22;11041;50.854;20.580;2022-11-20T01:29:06;-5.00;99.90
21759;DHT22;11041;50.854;20.580;2022-11-20T01:31:37;-5.00;99.90
21759;DHT22;11041;50.854;20.580;2022-11-20T01:34:12;-5.00;99.90
21759;DHT22;11041;50.854;20.580;2022-11-20T01:36:40;-5.10;99.90
21759;DHT22;11041;50.854;20.580;2022-11-20T01:39:12;-5.00;99.90
21759;DHT22;11041;50.854;20.580;2022-11-20T01:41:45;-5.00;99.90
21759;DHT22;11041;50.854;20.580;2022-11-20T01:44:57;-5.00;99.90
21759;DHT22;11041;50.854;20.580;2022-11-20T01:47:35;-5.00;99.90
21759;DHT22;11041;50.854;20.580;2022-11-20T01:50:26;-5.10;99.90
21759;DHT22;11041;50.854;20.580;2022-11-20T01:53:03;-5.10;99.90
21759;DHT22;11041;50.854;20.580;2022-11-20T01:55:39;-5.20;99.90
21759;DHT22;11041;50.854;20.580;2022-11-20T01:58:09;-5.20;99.90
21759;DHT22;11041;50.854;20.580;2022-11-20T02:00:39;-5.20;99.90
21759;DHT22;11041;50.854;20.580;2022-11-20T02:03:12;-5.20;99.90
21759;DHT22;11041;50.854;20.580;2022-11-20T02:06:10;-5.30;99.90
21759;DHT22;11041;50.854;20.580;2022-11-20T02:08:43;-5.30;99.90
21759;DHT22;11041;50.854;20.580;2022-11-20T02:11:09;-5.30;99.90
21759;DHT22;11041;50.854;20.580;2022-11-20T02:13:38;-5.30;99.90
21759;DHT22;11041;50.854;20.580;2022-11-20T02:16:39;-5.30;99.90
21759;DHT22;11041;50.854;20.580;2022-11-20T02:19:29;-5.20;99.90
21759;DHT22;11041;50.854;20.580;2022-11-20T02:25:00;-5.20;99.90
21759;DHT22;11041;50.854;20.580;2022-11-20T02:27:29;-5.20;99.90
21759;DHT22;11041;50.854;20.580;2022-11-20T02:30:06;-5.20;99.90
21759;DHT22;11041;50.854;20.580;2022-11-20T02:32:35;-5.10;99.90
21759;DHT22;11041;50.854;20.580;2022-11-20T02:37:50;-5.10;99.90
21759;DHT22;11041;50.854;20.580;2022-11-20T02:40:21;-5.10;99.90
21759;DHT22;11041;50.854;20.580;2022-11-20T02:42:51;-5.10;99.90
21759;DHT22;11041;50.854;20.580;2022-11-20T02:45:18;-5.10;99.90
21759;DHT22;11041;50.854;20.580;2022-11-20T02:47:44;-5.20;99.90
21759;DHT22;11041;50.854;20.580;2022-11-20T02:50:11;-5.10;99.90
21759;DHT22;11041;50.854;20.580;2022-11-20T02:52:38;-5.10;99.90
21759;DHT22;11041;50.854;20.580;2022-11-20T02:55:04;-5.20;99.90
21759;DHT22;11041;50.854;20.580;2022-11-20T02:57:32;-5.10;99.90
21759;DHT22;11041;50.854;20.580;2022-11-20T02:59:58;-5.20;99.90
21759;DHT22;11041;50.854;20.580;2022-11-20T03:02:25;-5.10;99.90
21759;DHT22;11041;50.854;20.580;2022-11-20T03:04:51;-5.10;99.90
21759;DHT22;11041;50.854;20.580;2022-11-20T03:07:18;-5.20;99.90
21759;DHT22;11041;50.854;20.580;2022-11-20T03:09:44;-5.10;99.90
21759;DHT22;11041;50.854;20.580;2022-11-20T03:12:11;-5.10;99.90
21759;DHT22;11041;50.854;20.580;2022-11-20T03:14:37;-5.10;99.90
21759;DHT22;11041;50.854;20.580;2022-11-20T03:17:04;-5.20;99.90
21759;DHT22;11041;50.854;20.580;2022-11-20T03:19:31;-5.10;99.90
21759;DHT22;11041;50.854;20.580;2022-11-20T03:21:58;-5.20;99.90
21759;DHT22;11041;50.854;20.580;2022-11-20T03:24:26;-5.20;99.90
21759;DHT22;11041;50.854;20.580;2022-11-20T03:26:53;-5.20;99.90
21759;DHT22;11041;50.854;20.580;2022-11-20T03:29:23;-5.20;99.90
21759;DHT22;11041;50.854;20.580;2022-11-20T03:31:49;-5.20;99.90
21759;DHT22;11041;50.854;20.580;2022-11-20T03:34:16;-5.20;99.90
21759;DHT22;11041;50.854;20.580;2022-11-20T03:36:42;-5.20;99.90
21759;DHT22;11041;50.854;20.580;2022-11-20T03:39:09;-5.10;99.90
21759;DHT22;11041;50.854;20.580;2022-11-20T03:41:40;-5.10;99.90
21759;DHT22;11041;50.854;20.580;2022-11-20T03:44:10;-5.10;99.90
21759;DHT22;11041;50.854;20.580;2022-11-20T03:46:37;-5.00;99.90
21759;DHT22;11041;50.854;20.580;2022-11-20T03:49:04;-5.00;99.90
21759;DHT22;11041;50.854;20.580;2022-11-20T03:51:34;-5.00;99.90
21759;DHT22;11041;50.854;20.580;2022-11-20T03:54:04;-4.90;99.90
21759;DHT22;11041;50.854;20.580;2022-11-20T03:56:37;-4.90;99.90
21759;DHT22;11041;50.854;20.580;2022-11-20T03:59:04;-4.90;99.90
21759;DHT22;11041;50.854;20.580;2022-11-20T04:01:33;-4.80;99.90
21759;DHT22;11041;50.854;20.580;2022-11-20T04:04:01;-4.80;99.90
21759;DHT22;11041;50.854;20.580;2022-11-20T04:06:34;-4.80;99.90
21759;DHT22;11041;50.854;20.580;2022-11-20T04:09:04;-4.70;99.90
21759;DHT22;11041;50.854;20.580;2022-11-20T04:11:36;-4.50;99.90
21759;DHT22;11041;50.854;20.580;2022-11-20T04:14:11;-4.50;99.90
21759;DHT22;11041;50.854;20.580;2022-11-20T04:16:39;-4.50;99.90
21759;DHT22;11041;50.854;20.580;2022-11-20T04:19:10;-4.40;99.90
21759;DHT22;11041;50.854;20.580;2022-11-20T04:21:43;-4.40;99.90
21759;DHT22;11041;50.854;20.580;2022-11-20T04:24:10;-4.40;99.90
21759;DHT22;11041;50.854;20.580;2022-11-20T04:26:37;-4.40;99.90
21759;DHT22;11041;50.854;20.580;2022-11-20T04:29:05;-4.40;99.90
21759;DHT22;11041;50.854;20.580;2022-11-20T04:31:33;-4.30;99.90
21759;DHT22;11041;50.854;20.580;2022-11-20T04:34:05;-4.20;99.90
21759;DHT22;11041;50.854;20.580;2022-11-20T04:36:33;-4.20;99.90
21759;DHT22;11041;50.854;20.580;2022-11-20T04:39:05;-4.10;99.90
21759;DHT22;11041;50.854;20.580;2022-11-20T04:41:35;-4.10;99.90
21759;DHT22;11041;50.854;20.580;2022-11-20T04:44:04;-4.00;99.90
21759;DHT22;11041;50.854;20.580;2022-11-20T04:46:38;-3.90;99.90
21759;DHT22;11041;50.854;20.580;2022-11-20T04:49:07;-3.80;99.90
21759;DHT22;11041;50.854;20.580;2022-11-20T04:51:34;-3.70;99.90
21759;DHT22;11041;50.854;20.580;2022-11-20T04:54:01;-3.60;99.90
21759;DHT22;11041;50.854;20.580;2022-11-20T04:56:27;-3.60;99.90
21759;DHT22;11041;50.854;20.580;2022-11-20T04:58:54;-3.50;99.90
21759;DHT22;11041;50.854;20.580;2022-11-20T05:01:23;-3.40;99.90
21759;DHT22;11041;50.854;20.580;2022-11-20T05:03:51;-3.40;99.90
21759;DHT22;11041;50.854;20.580;2022-11-20T05:06:24;-3.30;99.90
21759;DHT22;11041;50.854;20.580;2022-11-20T05:08:50;-3.20;99.90
21759;DHT22;11041;50.854;20.580;2022-11-20T05:11:19;-3.20;99.90
21759;DHT22;11041;50.854;20.580;2022-11-20T05:13:48;-3.10;99.90
21759;DHT22;11041;50.854;20.580;2022-11-20T05:16:21;-3.10;99.90
21759;DHT22;11041;50.854;20.580;2022-11-20T05:18:50;-3.00;99.90
21759;DHT22;11041;50.854;20.580;2022-11-20T05:21:19;-2.90;99.90
21759;DHT22;11041;50.854;20.580;2022-11-20T05:23:46;-2.90;99.90
21759;DHT22;11041;50.854;20.580;2022-11-20T05:26:15;-3.00;99.90
21759;DHT22;11041;50.854;20.580;2022-11-20T05:28:48;-2.90;99.90
21759;DHT22;11041;50.854;20.580;2022-11-20T05:31:18;-2.90;99.90
21759;DHT22;11041;50.854;20.580;2022-11-20T05:33:49;-2.90;99.90
21759;DHT22;11041;50.854;20.580;2022-11-20T05:36:16;-2.90;99.90
21759;DHT22;11041;50.854;20.580;2022-11-20T05:38:44;-2.90;99.90
21759;DHT22;11041;50.854;20.580;2022-11-20T05:41:12;-2.90;99.90
21759;DHT22;11041;50.854;20.580;2022-11-20T05:43:42;-2.90;99.90
21759;DHT22;11041;50.854;20.580;2022-11-20T05:46:14;-2.90;99.90
21759;DHT22;11041;50.854;20.580;2022-11-20T05:48:43;-2.90;99.90
21759;DHT22;11041;50.854;20.580;2022-11-20T05:51:13;-2.80;99.90
21759;DHT22;11041;50.854;20.580;2022-11-20T05:53:41;-2.90;99.90
21759;DHT22;11041;50.854;20.580;2022-11-20T05:56:14;-2.90;99.90
21759;DHT22;11041;50.854;20.580;2022-11-20T05:58:44;-2.80;99.90
21759;DHT22;11041;50.854;20.580;2022-11-20T06:01:20;-2.80;99.90
21759;DHT22;11041;50.854;20.580;2022-11-20T06:03:48;-3.00;99.90
21759;DHT22;11041;50.854;20.580;2022-11-20T06:06:17;-3.00;99.90
21759;DHT22;11041;50.854;20.580;2022-11-20T06:08:45;-3.00;99.90
21759;DHT22;11041;50.854;20.580;2022-11-20T06:11:13;-2.90;99.90
21759;DHT22;11041;50.854;20.580;2022-11-20T06:13:40;-3.00;99.90
21759;DHT22;11041;50.854;20.580;2022-11-20T06:16:08;-3.10;99.90
21759;DHT22;11041;50.854;20.580;2022-11-20T06:18:36;-3.10;99.90
21759;DHT22;11041;50.854;20.580;2022-11-20T06:21:06;-3.30;99.90
21759;DHT22;11041;50.854;20.580;2022-11-20T06:23:35;-3.50;99.90
21759;DHT22;11041;50.854;20.580;2022-11-20T06:26:11;-3.50;99.90
21759;DHT22;11041;50.854;20.580;2022-11-20T06:28:39;-3.40;99.90
21759;DHT22;11041;50.854;20.580;2022-11-20T06:31:07;-3.40;99.90
21759;DHT22;11041;50.854;20.580;2022-11-20T06:33:36;-3.30;99.90
21759;DHT22;11041;50.854;20.580;2022-11-20T06:36:04;-3.30;99.90
21759;DHT22;11041;50.854;20.580;2022-11-20T06:38:30;-3.30;99.90
21759;DHT22;11041;50.854;20.580;2022-11-20T06:40:57;-3.20;99.90
21759;DHT22;11041;50.854;20.580;2022-11-20T06:43:24;-3.20;99.90
21759;DHT22;11041;50.854;20.580;2022-11-20T06:45:55;-3.20;99.90
21759;DHT22;11041;50.854;20.580;2022-11-20T06:48:24;-3.20;99.90
21759;DHT22;11041;50.854;20.580;2022-11-20T06:50:53;-3.50;99.90
21759;DHT22;11041;50.854;20.580;2022-11-20T06:53:20;-3.60;99.90
21759;DHT22;11041;50.854;20.580;2022-11-20T06:55:48;-3.50;99.90
21759;DHT22;11041;50.854;20.580;2022-11-20T06:58:15;-3.50;99.90
21759;DHT22;11041;50.854;20.580;2022-11-20T07:00:43;-3.60;99.90
21759;DHT22;11041;50.854;20.580;2022-11-20T07:03:12;-3.70;99.90
21759;DHT22;11041;50.854;20.580;2022-11-20T07:05:39;-3.70;99.90
21759;DHT22;11041;50.854;20.580;2022-11-20T07:08:06;-3.80;99.90
21759;DHT22;11041;50.854;20.580;2022-11-20T07:10:33;-3.80;99.90
21759;DHT22;11041;50.854;20.580;2022-11-20T07:13:00;-3.80;99.90
21759;DHT22;11041;50.854;20.580;2022-11-20T07:15:28;-3.80;99.90
21759;DHT22;11041;50.854;20.580;2022-11-20T07:17:58;-3.80;99.90
21759;DHT22;11041;50.854;20.580;2022-11-20T07:20:25;-3.90;99.90
21759;DHT22;11041;50.854;20.580;2022-11-20T07:22:55;-3.90;99.90
21759;DHT22;11041;50.854;20.580;2022-11-20T07:25:27;-3.90;99.90
21759;DHT22;11041;50.854;20.580;2022-11-20T07:27:58;-4.00;99.90
21759;DHT22;11041;50.854;20.580;2022-11-20T07:30:27;-3.90;99.90
21759;DHT22;11041;50.854;20.580;2022-11-20T07:32:55;-4.00;99.90
21759;DHT22;11041;50.854;20.580;2022-11-20T07:35:24;-3.90;99.90
21759;DHT22;11041;50.854;20.580;2022-11-20T07:37:51;-3.90;99.90
21759;DHT22;11041;50.854;20.580;2022-11-20T07:40:18;-3.80;99.90
21759;DHT22;11041;50.854;20.580;2022-11-20T07:42:52;-3.70;99.90
21759;DHT22;11041;50.854;20.580;2022-11-20T07:45:23;-3.70;99.90
21759;DHT22;11041;50.854;20.580;2022-11-20T07:47:50;-3.70;99.90
21759;DHT22;11041;50.854;20.580;2022-11-20T07:50:18;-3.80;99.90
21759;DHT22;11041;50.854;20.580;2022-11-20T07:52:45;-3.70;99.90
21759;DHT22;11041;50.854;20.580;2022-11-20T07:55:11;-3.70;99.90
21759;DHT22;11041;50.854;20.580;2022-11-20T07:57:39;-3.70;99.90
21759;DHT22;11041;50.854;20.580;2022-11-20T08:00:07;-3.60;99.90
21759;DHT22;11041;50.854;20.580;2022-11-20T08:02:39;-3.60;99.90
21759;DHT22;11041;50.854;20.580;2022-11-20T08:05:08;-3.60;99.90
21759;DHT22;11041;50.854;20.580;2022-11-20T08:07:37;-3.40;99.90
21759;DHT22;11041;50.854;20.580;2022-11-20T08:10:11;-3.40;99.90
21759;DHT22;11041;50.854;20.580;2022-11-20T08:12:50;-3.30;99.90
21759;DHT22;11041;50.854;20.580;2022-11-20T08:15:38;-3.20;99.90
21759;DHT22;11041;50.854;20.580;2022-11-20T08:18:11;-3.10;99.90
21759;DHT22;11041;50.854;20.580;2022-11-20T08:20:38;-3.10;99.90
21759;DHT22;11041;50.854;20.580;2022-11-20T08:23:06;-3.00;99.90
21759;DHT22;11041;50.854;20.580;2022-11-20T08:25:35;-2.90;99.90
21759;DHT22;11041;50.854;20.580;2022-11-20T08:28:05;-2.90;99.90
21759;DHT22;11041;50.854;20.580;2022-11-20T08:30:34;-2.80;99.90
21759;DHT22;11041;50.854;20.580;2022-11-20T08:33:05;-2.70;99.90
21759;DHT22;11041;50.854;20.580;2022-11-20T08:35:35;-2.60;99.90
21759;DHT22;11041;50.854;20.580;2022-11-20T08:38:04;-2.60;99.90
21759;DHT22;11041;50.854;20.580;2022-11-20T08:40:32;-2.50;99.90
21759;DHT22;11041;50.854;20.580;2022-11-20T08:42:59;-2.40;99.90
21759;DHT22;11041;50.854;20.580;2022-11-20T08:45:27;-2.30;99.90
21759;DHT22;11041;50.854;20.580;2022-11-20T08:47:59;-2.30;99.90
21759;DHT22;11041;50.854;20.580;2022-11-20T08:50:26;-2.30;99.90
21759;DHT22;11041;50.854;20.580;2022-11-20T08:52:53;-2.30;99.90
21759;DHT22;11041;50.854;20.580;2022-11-20T08:55:20;-2.30;99.90
21759;DHT22;11041;50.854;20.580;2022-11-20T08:57:46;-2.10;99.90
21759;DHT22;11041;50.854;20.580;2022-11-20T09:00:14;-2.00;99.90
21759;DHT22;11041;50.854;20.580;2022-11-20T09:02:40;-2.00;99.90
21759;DHT22;11041;50.854;20.580;2022-11-20T09:05:07;-2.00;99.90
21759;DHT22;11041;50.854;20.580;2022-11-20T09:07:33;-2.00;99.90
21759;DHT22;11041;50.854;20.580;2022-11-20T09:10:00;-2.00;99.90
21759;DHT22;11041;50.854;20.580;2022-11-20T09:12:26;-1.90;99.90
21759;DHT22;11041;50.854;20.580;2022-11-20T09:14:53;-1.80;99.90
21759;DHT22;11041;50.854;20.580;2022-11-20T09:17:20;-1.70;99.90
21759;DHT22;11041;50.854;20.580;2022-11-20T09:19:46;-1.80;99.90
21759;DHT22;11041;50.854;20.580;2022-11-20T09:22:13;-1.60;99.90
21759;DHT22;11041;50.854;20.580;2022-11-20T09:24:39;-1.60;99.90
21759;DHT22;11041;50.854;20.580;2022-11-20T09:27:06;-1.70;99.90
21759;DHT22;11041;50.854;20.580;2022-11-20T09:29:32;-1.70;99.90
21759;DHT22;11041;50.854;20.580;2022-11-20T09:31:59;-1.70;99.90
21759;DHT22;11041;50.854;20.580;2022-11-20T09:34:25;-1.70;99.90
21759;DHT22;11041;50.854;20.580;2022-11-20T09:36:52;-1.70;99.90
21759;DHT22;11041;50.854;20.580;2022-11-20T09:39:18;-1.60;99.90
21759;DHT22;11041;50.854;20.580;2022-11-20T09:44:58;-1.70;99.90
21759;DHT22;11041;50.854;20.580;2022-11-20T09:48:02;-1.60;99.90
21759;DHT22;11041;50.854;20.580;2022-11-20T09:50:35;-1.50;99.90
21759;DHT22;11041;50.854;20.580;2022-11-20T09:56:03;-1.20;99.90
21759;DHT22;11041;50.854;20.580;2022-11-20T09:58:40;-1.20;99.90
21759;DHT22;11041;50.854;20.580;2022-11-20T10:01:30;-1.30;99.90
21759;DHT22;11041;50.854;20.580;2022-11-20T10:04:11;-1.30;99.90
21759;DHT22;11041;50.854;20.580;2022-11-20T10:07:13;-1.20;99.90
21759;DHT22;11041;50.854;20.580;2022-11-20T10:09:51;-1.10;99.90
21759;DHT22;11041;50.854;20.580;2022-11-20T10:12:31;-1.00;99.90
21759;DHT22;11041;50.854;20.580;2022-11-20T10:26:16;-0.80;99.90
21759;DHT22;11041;50.854;20.580;2022-11-20T10:31:45;-0.80;99.90
21759;DHT22;11041;50.854;20.580;2022-11-20T10:34:46;-0.70;99.90
21759;DHT22;11041;50.854;20.580;2022-11-20T10:37:25;-0.70;99.90
21759;DHT22;11041;50.854;20.580;2022-11-20T10:43:21;-0.60;99.90
21759;DHT22;11041;50.854;20.580;2022-11-20T10:46:10;-0.60;99.90
21759;DHT22;11041;50.854;20.580;2022-11-20T10:48:43;-0.60;99.90
21759;DHT22;11041;50.854;20.580;2022-11-20T10:51:15;-0.40;99.90
21759;DHT22;11041;50.854;20.580;2022-11-20T11:00:04;-0.30;99.90
21759;DHT22;11041;50.854;20.580;2022-11-20T11:03:14;-0.30;99.90
21759;DHT22;11041;50.854;20.580;2022-11-20T11:09:03;-0.10;99.90
21759;DHT22;11041;50.854;20.580;2022-11-20T11:11:38;-0.10;99.90
21759;DHT22;11041;50.854;20.580;2022-11-20T11:14:07;-0.10;99.90
21759;DHT22;11041;50.854;20.580;2022-11-20T11:16:35;-0.20;99.90
21759;DHT22;11041;50.854;20.580;2022-11-20T11:19:21;-0.20;99.90
21759;DHT22;11041;50.854;20.580;2022-11-20T11:21:56;-0.20;99.90
21759;DHT22;11041;50.854;20.580;2022-11-20T11:24:28;-0.20;99.90
21759;DHT22;11041;50.854;20.580;2022-11-20T11:27:02;-0.30;99.90
21759;DHT22;11041;50.854;20.580;2022-11-20T11:29:35;-0.40;99.90
21759;DHT22;11041;50.854;20.580;2022-11-20T11:32:12;-0.40;99.90
21759;DHT22;11041;50.854;20.580;2022-11-20T11:34:43;-0.30;99.90
21759;DHT22;11041;50.854;20.580;2022-11-20T11:37:18;-0.30;99.90
21759;DHT22;11041;50.854;20.580;2022-11-20T11:39:50;-0.20;99.90
21759;DHT22;11041;50.854;20.580;2022-11-20T11:42:18;-0.20;99.90
21759;DHT22;11041;50.854;20.580;2022-11-20T11:44:47;-0.20;99.90
21759;DHT22;11041;50.854;20.580;2022-11-20T11:47:47;-0.20;99.90
21759;DHT22;11041;50.854;20.580;2022-11-20T11:50:23;-0.20;99.90
21759;DHT22;11041;50.854;20.580;2022-11-20T11:53:12;-0.20;99.90
21759;DHT22;11041;50.854;20.580;2022-11-20T11:55:44;-0.20;99.90
21759;DHT22;11041;50.854;20.580;2022-11-20T12:06:31;-0.10;99.90
21759;DHT22;11041;50.854;20.580;2022-11-20T12:09:05;-0.40;99.90
21759;DHT22;11041;50.854;20.580;2022-11-20T12:11:56;-0.30;99.90
21759;DHT22;11041;50.854;20.580;2022-11-20T12:14:41;-0.30;99.90
21759;DHT22;11041;50.854;20.580;2022-11-20T12:17:13;-0.40;99.90
21759;DHT22;11041;50.854;20.580;2022-11-20T12:19:41;-0.40;99.90
21759;DHT22;11041;50.854;20.580;2022-11-20T12:25:33;-0.40;99.90
21759;DHT22;11041;50.854;20.580;2022-11-20T12:30:34;-0.50;99.90
21759;DHT22;11041;50.854;20.580;2022-11-20T12:33:26;-0.50;99.90
21759;DHT22;11041;50.854;20.580;2022-11-20T12:36:38;-0.50;99.90
21759;DHT22;11041;50.854;20.580;2022-11-20T12:39:35;-0.60;99.90
21759;DHT22;11041;50.854;20.580;2022-11-20T12:48:16;-0.70;99.90
21759;DHT22;11041;50.854;20.580;2022-11-20T12:57:24;-0.90;99.90
21759;DHT22;11041;50.854;20.580;2022-11-20T13:00:23;-0.80;99.90
21759;DHT22;11041;50.854;20.580;2022-11-20T13:06:17;-0.80;99.90
21759;DHT22;11041;50.854;20.580;2022-11-20T13:09:04;-0.80;99.90
21759;DHT22;11041;50.854;20.580;2022-11-20T13:14:52;-0.60;99.90
21759;DHT22;11041;50.854;20.580;2022-11-20T13:20:19;-0.60;99.90
21759;DHT22;11041;50.854;20.580;2022-11-20T13:22:48;-0.70;99.90
21759;DHT22;11041;50.854;20.580;2022-11-20T13:25:26;-0.60;99.90
21759;DHT22;11041;50.854;20.580;2022-11-20T13:30:50;-0.50;99.90
21759;DHT22;11041;50.854;20.580;2022-11-20T13:33:37;-0.50;99.90
21759;DHT22;11041;50.854;20.580;2022-11-20T13:36:19;-0.50;99.90
21759;DHT22;11041;50.854;20.580;2022-11-20T13:38:53;-0.50;99.90
21759;DHT22;11041;50.854;20.580;2022-11-20T13:41:35;-0.60;99.90
21759;DHT22;11041;50.854;20.580;2022-11-20T13:46:44;-0.70;99.90
21759;DHT22;11041;50.854;20.580;2022-11-20T13:49:38;-0.60;99.90
21759;DHT22;11041;50.854;20.580;2022-11-20T13:52:39;-0.70;99.90
21759;DHT22;11041;50.854;20.580;2022-11-20T14:00:25;-0.60;99.90
21759;DHT22;11041;50.854;20.580;2022-11-20T14:05:59;-0.60;99.90
21759;DHT22;11041;50.854;20.580;2022-11-20T14:09:01;-0.50;99.90
21759;DHT22;11041;50.854;20.580;2022-11-20T14:11:31;-0.50;99.90
21759;DHT22;11041;50.854;20.580;2022-11-20T14:14:01;-0.50;99.90
21759;DHT22;11041;50.854;20.580;2022-11-20T14:16:35;-0.40;99.90
21759;DHT22;11041;50.854;20.580;2022-11-20T14:19:28;-0.50;99.90
21759;DHT22;11041;50.854;20.580;2022-11-20T14:22:19;-0.50;99.90
21759;DHT22;11041;50.854;20.580;2022-11-20T14:24:59;-0.50;99.90
21759;DHT22;11041;50.854;20.580;2022-11-20T14:27:40;-0.60;99.90
21759;DHT22;11041;50.854;20.580;2022-11-20T14:30:21;-0.60;99.90
21759;DHT22;11041;50.854;20.580;2022-11-20T14:32:50;-0.70;99.90
21759;DHT22;11041;50.854;20.580;2022-11-20T14:35:25;-0.70;99.90
21759;DHT22;11041;50.854;20.580;2022-11-20T14:37:55;-0.80;99.90
21759;DHT22;11041;50.854;20.580;2022-11-20T14:40:34;-0.90;99.90
21759;DHT22;11041;50.854;20.580;2022-11-20T14:43:16;-0.80;99.90
21759;DHT22;11041;50.854;20.580;2022-11-20T14:45:48;-0.80;99.90
21759;DHT22;11041;50.854;20.580;2022-11-20T14:48:30;-0.70;99.90
21759;DHT22;11041;50.854;20.580;2022-11-20T14:51:00;-0.80;99.90
21759;DHT22;11041;50.854;20.580;2022-11-20T14:53:27;-0.80;99.90
21759;DHT22;11041;50.854;20.580;2022-11-20T14:55:59;-0.80;99.90
21759;DHT22;11041;50.854;20.580;2022-11-20T14:58:31;-0.90;99.90
21759;DHT22;11041;50.854;20.580;2022-11-20T15:01:05;-0.90;99.90
21759;DHT22;11041;50.854;20.580;2022-11-20T15:03:39;-0.90;99.90
21759;DHT22;11041;50.854;20.580;2022-11-20T15:06:11;-0.90;99.90
21759;DHT22;11041;50.854;20.580;2022-11-20T15:08:38;-0.90;99.90
21759;DHT22;11041;50.854;20.580;2022-11-20T15:11:24;-1.00;99.90
21759;DHT22;11041;50.854;20.580;2022-11-20T15:13:56;-1.00;99.90
21759;DHT22;11041;50.854;20.580;2022-11-20T15:16:29;-1.00;99.90
21759;DHT22;11041;50.854;20.580;2022-11-20T15:18:57;-1.00;99.90
21759;DHT22;11041;50.854;20.580;2022-11-20T15:21:26;-1.00;99.90
21759;DHT22;11041;50.854;20.580;2022-11-20T15:23:52;-1.00;99.90
21759;DHT22;11041;50.854;20.580;2022-11-20T15:26:26;-1.00;99.90
21759;DHT22;11041;50.854;20.580;2022-11-20T15:28:54;-1.10;99.90
21759;DHT22;11041;50.854;20.580;2022-11-20T15:31:23;-1.20;99.90
21759;DHT22;11041;50.854;20.580;2022-11-20T15:33:50;-1.20;99.90
21759;DHT22;11041;50.854;20.580;2022-11-20T15:36:17;-1.10;99.90
21759;DHT22;11041;50.854;20.580;2022-11-20T15:38:43;-1.10;99.90
21759;DHT22;11041;50.854;20.580;2022-11-20T15:41:10;-1.20;99.90
21759;DHT22;11041;50.854;20.580;2022-11-20T15:43:37;-1.10;99.90
21759;DHT22;11041;50.854;20.580;2022-11-20T15:46:23;-1.10;99.90
21759;DHT22;11041;50.854;20.580;2022-11-20T15:48:55;-1.10;99.90
21759;DHT22;11041;50.854;20.580;2022-11-20T15:51:37;-1.10;99.90
21759;DHT22;11041;50.854;20.580;2022-11-20T15:54:25;-1.00;99.90
21759;DHT22;11041;50.854;20.580;2022-11-20T15:56:52;-1.00;99.90
21759;DHT22;11041;50.854;20.580;2022-11-20T15:59:19;-1.00;99.90
21759;DHT22;11041;50.854;20.580;2022-11-20T16:01:46;-1.00;99.90
21759;DHT22;11041;50.854;20.580;2022-11-20T16:04:15;-0.90;99.90
21759;DHT22;11041;50.854;20.580;2022-11-20T16:06:43;-0.90;99.90
21759;DHT22;11041;50.854;20.580;2022-11-20T16:09:09;-0.90;99.90
21759;DHT22;11041;50.854;20.580;2022-11-20T16:11:36;-0.80;99.90
21759;DHT22;11041;50.854;20.580;2022-11-20T16:14:04;-0.80;99.90
21759;DHT22;11041;50.854;20.580;2022-11-20T16:16:50;-0.70;99.90
21759;DHT22;11041;50.854;20.580;2022-11-20T16:19:16;-0.70;99.90
21759;DHT22;11041;50.854;20.580;2022-11-20T16:21:44;-0.60;99.90
21759;DHT22;11041;50.854;20.580;2022-11-20T16:24:13;-0.60;99.90
21759;DHT22;11041;50.854;20.580;2022-11-20T16:26:41;-0.60;99.90
21759;DHT22;11041;50.854;20.580;2022-11-20T16:29:09;-0.50;99.90
21759;DHT22;11041;50.854;20.580;2022-11-20T16:31:36;-0.50;99.90
21759;DHT22;11041;50.854;20.580;2022-11-20T16:34:05;-0.50;99.90
21759;DHT22;11041;50.854;20.580;2022-11-20T16:36:34;-0.50;99.90
21759;DHT22;11041;50.854;20.580;2022-11-20T16:39:02;-0.50;99.90
21759;DHT22;11041;50.854;20.580;2022-11-20T16:41:31;-0.60;99.90
21759;DHT22;11041;50.854;20.580;2022-11-20T16:44:01;-0.60;99.90
21759;DHT22;11041;50.854;20.580;2022-11-20T16:46:31;-0.70;99.90
21759;DHT22;11041;50.854;20.580;2022-11-20T16:49:00;-0.70;99.90
21759;DHT22;11041;50.854;20.580;2022-11-20T16:51:34;-0.70;99.90
21759;DHT22;11041;50.854;20.580;2022-11-20T16:54:05;-0.70;99.90
21759;DHT22;11041;50.854;20.580;2022-11-20T16:56:33;-0.80;99.90
21759;DHT22;11041;50.854;20.580;2022-11-20T16:59:01;-0.80;99.90
21759;DHT22;11041;50.854;20.580;2022-11-20T17:01:28;-0.80;99.90
21759;DHT22;11041;50.854;20.580;2022-11-20T17:04:02;-0.70;99.90
21759;DHT22;11041;50.854;20.580;2022-11-20T17:06:38;-0.70;99.90
21759;DHT22;11041;50.854;20.580;2022-11-20T17:09:09;-0.80;99.90
21759;DHT22;11041;50.854;20.580;2022-11-20T17:11:36;-0.80;99.90
21759;DHT22;11041;50.854;20.580;2022-11-20T17:14:04;-0.80;99.90